CheckWX is a tool to help pilots better visualize weather data.  It is not intended as a substitute for an official pre-flight weather briefing.

16:33:35 UTC

KGAG METAR
Gage Airport
Gage, Oklahoma, USA
Current

41 mins ago

KGAG 291553Z AUTO 07008KT 10SM CLR 24/14 A3025 RMK AO2 SLP224 T02440139
Observed
May-29 @ 15:53 UTC
Wind
  • 070° at 8 KTS
Visibility
Flight Rules
VFR
Cloud Levels
  • Clear skies
Temperature
24°C / 75°F
Dewpoint
14°C / 57°F
Humidity
54%
Altimeter
30.25" Hg
Pressure
1024.42 hPa
Previous

2 hours ago

KGAG 291453Z AUTO 05010KT 10SM CLR 24/15 A3026 RMK AO2 SLP224 T02390150 51007
Observed
May-29 @ 14:53 UTC
Wind
  • 050° at 10 KTS
Visibility
Flight Rules
VFR
Cloud Levels
  • Clear skies
Temperature
24°C / 75°F
Dewpoint
15°C / 59°F
Humidity
57%
Altimeter
30.26" Hg
Pressure
1024.72 hPa
Previous

3 hours ago

KGAG 291353Z AUTO 24004KT 10SM CLR 21/15 A3025 RMK AO2 SLP224 T02060150
Observed
May-29 @ 13:53 UTC
Wind
  • 240° at 4 KTS
Visibility
Flight Rules
VFR
Cloud Levels
  • Clear skies
Temperature
21°C / 70°F
Dewpoint
15°C / 59°F
Humidity
69%
Altimeter
30.25" Hg
Pressure
1024.42 hPa